createdAt,value
2018-01-18T00:01:06.527Z,96.12
2018-01-18T00:03:34.894Z,96.16
2018-01-18T00:06:04.204Z,96.21
2018-01-18T00:08:32.602Z,96.19
2018-01-18T00:11:00.860Z,96.32
2018-01-18T00:13:29.870Z,96.15
2018-01-18T00:15:58.119Z,96.26
2018-01-18T00:18:26.370Z,96.21
2018-01-18T00:20:55.118Z,96.17
2018-01-18T00:23:23.361Z,96.18
2018-01-18T00:25:51.655Z,96.35
2018-01-18T00:28:20.003Z,96.33
2018-01-18T00:30:48.295Z,95.40
2018-01-18T00:33:17.315Z,94.16
2018-01-18T00:35:45.562Z,93.92
2018-01-18T00:38:13.802Z,93.39
2018-01-18T00:40:42.855Z,92.47
2018-01-18T00:43:11.104Z,92.01
2018-01-18T00:45:39.363Z,91.51
2018-01-18T00:48:08.383Z,90.64
2018-01-18T00:50:36.659Z,90.06
2018-01-18T00:53:05.679Z,88.90
2018-01-18T00:55:34.144Z,89.75
2018-01-18T00:58:03.279Z,90.28
2018-01-18T01:00:31.713Z,90.39
2018-01-18T01:02:59.974Z,90.60
2018-01-18T01:05:28.238Z,89.53
2018-01-18T01:07:57.251Z,88.08
2018-01-18T01:10:26.276Z,88.46
2018-01-18T01:12:54.515Z,87.70
2018-01-18T01:15:22.806Z,86.91
2018-01-18T01:17:51.052Z,87.34
2018-01-18T01:20:19.331Z,86.51
2018-01-18T01:22:47.588Z,86.76
2018-01-18T01:25:16.617Z,86.86
2018-01-18T01:27:44.859Z,85.73
2018-01-18T01:30:13.119Z,85.44
2018-01-18T01:32:41.354Z,85.46
2018-01-18T01:35:09.621Z,86.02
2018-01-18T01:37:37.902Z,85.86
2018-01-18T01:40:06.231Z,84.94
2018-01-18T01:42:35.299Z,85.85
2018-01-18T01:45:03.605Z,85.54
2018-01-18T01:47:31.915Z,85.75
2018-01-18T01:50:00.956Z,86.32
2018-01-18T01:52:29.309Z,85.80
2018-01-18T01:54:58.332Z,84.82
2018-01-18T01:57:27.404Z,85.26
2018-01-18T01:59:55.671Z,86.21
2018-01-18T02:02:23.906Z,85.85
2018-01-18T02:04:52.942Z,87.16
2018-01-18T02:07:21.227Z,86.97
2018-01-18T02:09:49.496Z,87.52
2018-01-18T02:12:18.522Z,88.05
2018-01-18T02:14:46.760Z,88.27
2018-01-18T02:17:15.041Z,87.91
2018-01-18T02:19:43.286Z,86.80
2018-01-18T02:22:11.552Z,86.85
2018-01-18T02:24:39.799Z,86.07
2018-01-18T02:27:08.824Z,85.37
2018-01-18T02:29:37.102Z,85.60
2018-01-18T02:32:05.426Z,85.73
2018-01-18T02:34:34.549Z,86.16
2018-01-18T02:37:02.928Z,85.37
2018-01-18T02:39:31.283Z,85.64
2018-01-18T02:41:59.564Z,85.91
2018-01-18T02:44:28.644Z,85.62
2018-01-18T02:46:56.909Z,85.89
2018-01-18T02:49:25.917Z,86.20
2018-01-18T02:51:54.187Z,86.11
2018-01-18T02:54:23.208Z,86.08
2018-01-18T02:56:52.279Z,87.44
2018-01-18T02:59:21.371Z,87.05
2018-01-18T03:01:49.628Z,86.99
2018-01-18T03:04:17.875Z,87.75
2018-01-18T03:06:46.127Z,87.53
2018-01-18T03:09:14.372Z,87.99
2018-01-18T03:11:43.398Z,88.47
2018-01-18T03:14:11.643Z,88.94
2018-01-18T03:16:39.918Z,89.08
2018-01-18T03:19:08.145Z,88.83
2018-01-18T03:21:36.475Z,89.50
2018-01-18T03:24:05.592Z,89.62
2018-01-18T03:26:33.974Z,89.52
2018-01-18T03:29:02.331Z,89.96
2018-01-18T03:31:30.608Z,90.24
2018-01-18T03:33:59.621Z,90.58
2018-01-18T03:36:28.659Z,91.21
2018-01-18T03:38:56.911Z,90.90
2018-01-18T03:41:25.941Z,91.44
2018-01-18T03:43:54.202Z,91.88
2018-01-18T03:46:22.494Z,91.47
2018-01-18T03:48:50.820Z,92.14
2018-01-18T03:51:19.839Z,92.53
2018-01-18T03:53:48.097Z,92.79
2018-01-18T03:56:16.336Z,92.47
2018-01-18T03:58:44.590Z,92.40
2018-01-18T04:01:12.842Z,92.58
2018-01-18T04:03:41.878Z,92.97
2018-01-18T04:06:10.105Z,93.10
2018-01-18T04:08:38.344Z,93.45
2018-01-18T04:11:06.608Z,93.88
2018-01-18T04:13:34.928Z,94.19
2018-01-18T04:16:03.258Z,93.91
2018-01-18T04:18:31.846Z,94.00
2018-01-18T04:21:00.073Z,93.98
2018-01-18T04:23:29.076Z,94.41
2018-01-18T04:25:57.320Z,94.80
2018-01-18T04:28:25.595Z,94.57
2018-01-18T04:30:53.834Z,94.11
2018-01-18T04:33:22.098Z,94.52
2018-01-18T04:35:50.396Z,94.14
2018-01-18T04:38:18.659Z,94.28
2018-01-18T04:40:46.903Z,94.59
2018-01-18T04:43:15.175Z,94.14
2018-01-18T04:45:43.433Z,94.54
2018-01-18T04:48:11.690Z,94.11
2018-01-18T04:50:39.949Z,94.52
2018-01-18T04:53:08.203Z,94.43
2018-01-18T04:55:36.503Z,94.52
2018-01-18T04:58:04.795Z,94.22
2018-01-18T05:00:33.113Z,93.94
2018-01-18T05:03:01.703Z,94.42
2018-01-18T05:05:30.762Z,94.99
2018-01-18T05:07:59.010Z,94.61
2018-01-18T05:10:27.276Z,94.45
2018-01-18T05:12:55.611Z,94.70
2018-01-18T05:15:23.812Z,94.52
2018-01-18T05:17:52.116Z,94.16
2018-01-18T05:20:20.399Z,94.45
2018-01-18T05:22:48.643Z,94.02
2018-01-18T05:25:17.801Z,94.52
2018-01-18T05:27:46.043Z,94.57
2018-01-18T05:30:14.312Z,94.09
2018-01-18T05:32:43.368Z,94.09
2018-01-18T05:35:11.911Z,94.04
2018-01-18T05:37:40.400Z,94.02
2018-01-18T05:40:09.044Z,93.97
2018-01-18T05:42:37.461Z,94.71
2018-01-18T05:45:06.132Z,94.21
2018-01-18T05:47:34.455Z,94.21
2018-01-18T05:50:02.874Z,94.26
2018-01-18T05:52:31.312Z,94.28
2018-01-18T05:54:59.700Z,94.05
2018-01-18T05:57:28.014Z,93.95
2018-01-18T05:59:56.267Z,93.64
2018-01-18T06:02:25.284Z,93.35
2018-01-18T06:04:53.564Z,93.88
2018-01-18T06:07:22.592Z,93.55
2018-01-18T06:09:50.894Z,93.45
2018-01-18T06:12:19.132Z,92.79
2018-01-18T06:14:48.168Z,92.74
2018-01-18T06:17:16.415Z,92.91
2018-01-18T06:19:44.847Z,92.58
2018-01-18T06:22:13.207Z,93.17
2018-01-18T06:24:41.531Z,92.54
2018-01-18T06:27:09.796Z,92.88
2018-01-18T06:29:38.205Z,92.97
2018-01-18T06:32:07.463Z,92.01
2018-01-18T06:34:35.799Z,92.13
2018-01-18T06:37:04.197Z,92.25
2018-01-18T06:39:32.536Z,92.06
2018-01-18T06:42:00.795Z,92.11
2018-01-18T06:44:29.044Z,92.17
2018-01-18T06:46:58.074Z,92.57
2018-01-18T06:49:26.319Z,92.91
2018-01-18T06:51:54.586Z,93.25
2018-01-18T06:54:22.847Z,93.60
2018-01-18T06:56:51.144Z,93.16
2018-01-18T06:59:19.387Z,93.08
2018-01-18T07:01:47.664Z,93.65
2018-01-18T07:04:15.937Z,93.17
2018-01-18T07:06:44.241Z,93.48
2018-01-18T07:09:13.240Z,92.62
2018-01-18T07:11:41.523Z,92.82
2018-01-18T07:14:09.771Z,92.35
2018-01-18T07:16:38.039Z,93.00
2018-01-18T07:19:07.101Z,92.24
2018-01-18T07:21:35.375Z,91.69
2018-01-18T07:24:03.631Z,91.98
2018-01-18T07:26:32.704Z,91.79
2018-01-18T07:29:01.776Z,92.26
2018-01-18T07:31:29.992Z,92.14
2018-01-18T07:33:58.243Z,92.39
2018-01-18T07:36:26.512Z,93.66
2018-01-18T07:38:55.531Z,91.20
2018-01-18T07:41:23.782Z,91.39
2018-01-18T07:43:52.805Z,91.56
2018-01-18T07:46:21.824Z,91.08
2018-01-18T07:48:50.832Z,91.27
2018-01-18T07:51:19.104Z,91.05
2018-01-18T07:53:53.586Z,91.18
2018-01-18T07:56:21.845Z,90.47
2018-01-18T07:58:50.856Z,90.70
2018-01-18T08:01:19.127Z,91.28
2018-01-18T08:03:53.745Z,90.35
2018-01-18T08:06:22.007Z,90.68
2018-01-18T08:08:50.252Z,90.82
2018-01-18T08:11:19.277Z,91.41
2018-01-18T08:13:47.557Z,90.99
2018-01-18T08:16:15.847Z,90.55
2018-01-18T08:18:44.155Z,90.71
2018-01-18T08:21:12.451Z,90.97
2018-01-18T08:23:40.741Z,90.96
2018-01-18T08:26:08.980Z,91.50
2018-01-18T08:28:38.010Z,91.63
2018-01-18T08:31:06.256Z,91.30
2018-01-18T08:33:34.510Z,91.77
2018-01-18T08:36:02.768Z,91.12
2018-01-18T08:38:31.060Z,90.81
2018-01-18T08:40:59.348Z,90.97
2018-01-18T08:43:27.620Z,91.28
2018-01-18T08:45:56.623Z,90.26
2018-01-18T08:48:25.656Z,90.40
2018-01-18T08:50:53.898Z,90.97
2018-01-18T08:53:22.167Z,90.23
2018-01-18T08:55:50.406Z,90.25
2018-01-18T08:58:19.439Z,89.79
2018-01-18T09:00:47.696Z,89.30
2018-01-18T09:03:16.746Z,90.13
2018-01-18T09:05:45.022Z,90.19
2018-01-18T09:08:13.324Z,89.52
2018-01-18T09:10:41.628Z,90.22
2018-01-18T09:13:09.979Z,89.22
2018-01-18T09:15:38.264Z,89.11
2018-01-18T09:18:06.530Z,88.61
2018-01-18T09:20:35.542Z,88.16
2018-01-18T09:23:04.591Z,86.97
2018-01-18T09:25:32.835Z,86.92
2018-01-18T09:28:01.868Z,86.97
2018-01-18T09:30:30.118Z,85.84
2018-01-18T09:32:58.384Z,86.27
2018-01-18T09:35:26.634Z,86.12
2018-01-18T09:37:54.900Z,86.08
2018-01-18T09:40:23.990Z,85.94
2018-01-18T09:42:52.287Z,84.99
2018-01-18T09:45:20.613Z,84.52
2018-01-18T09:47:48.894Z,84.28
2018-01-18T09:50:17.163Z,83.57
2018-01-18T09:52:46.175Z,83.84
2018-01-18T09:55:15.204Z,82.97
2018-01-18T09:57:43.443Z,82.19
2018-01-18T10:00:11.706Z,81.58
2018-01-18T10:02:40.722Z,81.32
2018-01-18T10:05:08.983Z,80.22
2018-01-18T10:07:37.262Z,79.99
2018-01-18T10:10:05.620Z,79.85
2018-01-18T10:12:33.859Z,79.35
2018-01-18T10:15:02.181Z,79.24
2018-01-18T10:17:30.435Z,78.63
2018-01-18T10:19:58.706Z,78.59
2018-01-18T10:22:26.958Z,77.99
2018-01-18T10:24:55.267Z,77.60
2018-01-18T10:27:24.280Z,77.46
2018-01-18T10:29:52.548Z,77.30
2018-01-18T10:32:20.800Z,77.15
2018-01-18T10:34:49.067Z,76.87
2018-01-18T10:37:17.344Z,77.19
2018-01-18T10:39:46.396Z,77.66
2018-01-18T10:42:14.652Z,77.10
2018-01-18T10:44:42.919Z,76.49
2018-01-18T10:47:11.927Z,76.48
2018-01-18T10:49:40.979Z,76.28
2018-01-18T10:52:09.232Z,76.10
2018-01-18T10:54:37.499Z,74.99
2018-01-18T10:57:06.532Z,74.60
2018-01-18T10:59:34.803Z,75.62
2018-01-18T11:02:03.104Z,76.19
2018-01-18T11:04:31.387Z,76.53
2018-01-18T11:06:59.651Z,76.17
2018-01-18T11:09:27.925Z,76.28
2018-01-18T11:11:56.934Z,76.95
2018-01-18T11:14:25.212Z,76.78
2018-01-18T11:16:53.475Z,76.63
2018-01-18T11:19:21.720Z,78.21
2018-01-18T11:21:50.004Z,78.12
2018-01-18T11:24:19.011Z,77.99
2018-01-18T11:26:48.037Z,76.68
2018-01-18T11:29:17.048Z,78.10
2018-01-18T11:31:45.315Z,78.03
2018-01-18T11:34:14.344Z,77.19
2018-01-18T11:36:42.636Z,76.50
2018-01-18T11:39:10.892Z,75.38
2018-01-18T11:41:39.164Z,74.41
2018-01-18T11:44:07.424Z,74.23
2018-01-18T11:46:35.775Z,74.74
2018-01-18T11:49:04.814Z,74.46
2018-01-18T11:51:33.133Z,74.25
2018-01-18T11:54:02.207Z,76.12
2018-01-18T11:56:30.472Z,75.39
2018-01-18T11:58:59.481Z,75.02
2018-01-18T12:01:27.804Z,74.01
2018-01-18T12:03:56.108Z,74.85
2018-01-18T12:06:25.143Z,74.79
2018-01-18T12:08:53.383Z,74.43
2018-01-18T12:11:21.664Z,73.43
2018-01-18T12:13:49.913Z,72.95
2018-01-18T12:16:18.961Z,73.70
2018-01-18T12:18:47.230Z,74.00
2018-01-18T12:21:16.247Z,74.45
2018-01-18T12:23:44.512Z,74.56
2018-01-18T12:26:13.543Z,74.61
2018-01-18T12:28:41.801Z,74.18
2018-01-18T12:31:10.074Z,73.43
2018-01-18T12:33:38.330Z,74.55
2018-01-18T12:36:06.786Z,74.44
2018-01-18T12:38:35.836Z,74.29
2018-01-18T12:41:04.099Z,74.18
2018-01-18T12:43:33.557Z,74.12
2018-01-18T12:46:01.840Z,74.28
2018-01-18T12:48:30.234Z,74.30
2018-01-18T12:50:58.654Z,74.92
2018-01-18T12:53:27.234Z,74.56
2018-01-18T12:55:55.655Z,74.75
2018-01-18T12:58:24.739Z,74.87
2018-01-18T13:00:53.171Z,74.87
2018-01-18T13:03:21.970Z,74.92
2018-01-18T13:05:50.953Z,75.14
2018-01-18T13:08:19.622Z,75.25
2018-01-18T13:10:48.394Z,75.48
2018-01-18T13:13:17.045Z,76.03
2018-01-18T13:15:45.696Z,75.99
2018-01-18T13:18:14.366Z,76.38
2018-01-18T13:20:43.479Z,76.44
2018-01-18T13:23:12.321Z,76.82
2018-01-18T13:25:40.920Z,76.82
2018-01-18T13:28:10.524Z,75.89
2018-01-18T13:30:38.784Z,75.52
2018-01-18T13:33:07.364Z,75.49
2018-01-18T13:35:36.740Z,76.73
2018-01-18T13:38:05.409Z,76.26
2018-01-18T13:40:34.283Z,76.00
2018-01-18T13:43:03.476Z,76.31
2018-01-18T13:45:32.099Z,76.70
2018-01-18T13:48:01.354Z,77.81
2018-01-18T13:50:29.974Z,78.29
2018-01-18T13:52:58.677Z,78.55
2018-01-18T13:55:27.026Z,79.51
2018-01-18T13:57:55.691Z,80.12
2018-01-18T14:00:24.919Z,81.22
2018-01-18T14:02:53.902Z,81.38
2018-01-18T14:05:23.207Z,82.41
2018-01-18T14:07:52.873Z,81.11
2018-01-18T14:10:21.512Z,81.21
2018-01-18T14:12:50.446Z,81.67
2018-01-18T14:15:19.455Z,80.89
2018-01-18T14:17:48.523Z,80.60
2018-01-18T14:20:17.068Z,80.97
2018-01-18T14:22:45.384Z,80.79
2018-01-18T14:25:13.673Z,80.07
2018-01-18T14:27:41.993Z,79.96
2018-01-18T14:30:10.853Z,80.24
2018-01-18T14:32:39.268Z,81.05
2018-01-18T14:35:09.084Z,83.20
2018-01-18T14:37:38.914Z,83.87
2018-01-18T14:40:07.332Z,86.98
2018-01-18T14:42:35.617Z,87.15
2018-01-18T14:45:04.256Z,88.11
2018-01-18T14:50:01.596Z,89.82
2018-01-18T14:52:29.855Z,89.78
2018-01-18T14:54:58.128Z,90.91
2018-01-18T14:57:26.720Z,91.95
2018-01-18T14:59:55.924Z,92.63
2018-01-18T15:02:24.618Z,93.23
2018-01-18T15:04:53.750Z,93.04
2018-01-18T15:07:22.092Z,93.28
2018-01-18T15:09:50.471Z,94.43
2018-01-18T15:12:18.729Z,94.49
2018-01-18T15:14:47.304Z,94.26
2018-01-18T15:17:16.810Z,94.97
2018-01-18T15:19:45.171Z,95.15
2018-01-18T15:22:13.438Z,94.69
2018-01-18T15:24:41.937Z,94.56
2018-01-18T15:27:10.619Z,93.91
2018-01-18T15:29:38.892Z,93.44
2018-01-18T15:32:07.449Z,92.60
2018-01-18T15:34:35.759Z,92.79
2018-01-18T15:37:05.858Z,92.62
2018-01-18T15:39:34.419Z,92.12
2018-01-18T15:42:03.021Z,91.72
2018-01-18T15:44:31.352Z,92.77
2018-01-18T15:47:00.426Z,92.03
2018-01-18T15:49:29.597Z,92.60
2018-01-18T15:51:58.653Z,92.40
2018-01-18T15:54:27.332Z,92.00
2018-01-18T15:56:55.729Z,92.24
2018-01-18T15:59:23.975Z,92.71
2018-01-18T16:01:53.233Z,92.81
2018-01-18T16:04:21.716Z,93.68
2018-01-18T16:06:50.254Z,94.37
2018-01-18T16:09:18.543Z,94.68
2018-01-18T16:11:46.954Z,94.95
2018-01-18T16:14:15.301Z,94.64
2018-01-18T16:16:43.837Z,94.78
2018-01-18T16:19:12.273Z,95.53
2018-01-18T16:21:40.683Z,95.71
2018-01-18T16:24:09.064Z,95.84
2018-01-18T16:26:37.358Z,96.55
2018-01-18T16:29:05.617Z,95.99
2018-01-18T16:31:34.074Z,95.85
2018-01-18T16:34:02.317Z,95.90
2018-01-18T16:36:30.604Z,96.41
2018-01-18T16:38:58.886Z,96.37
2018-01-18T16:41:27.196Z,96.59
2018-01-18T16:43:55.522Z,94.98
2018-01-18T16:46:24.112Z,92.65
2018-01-18T16:48:52.823Z,93.16
2018-01-18T16:51:21.269Z,93.04
2018-01-18T16:53:49.666Z,90.98
2018-01-18T16:56:18.008Z,90.09
2018-01-18T16:58:47.071Z,88.49
2018-01-18T17:01:15.475Z,88.36
2018-01-18T17:03:43.838Z,87.57
2018-01-18T17:06:12.524Z,88.36
2018-01-18T17:08:40.915Z,88.17
2018-01-18T17:11:09.171Z,88.07
2018-01-18T17:13:38.211Z,88.01
2018-01-18T17:16:06.523Z,87.85
2018-01-18T17:18:34.834Z,87.92
2018-01-18T17:21:03.167Z,88.95
2018-01-18T17:23:31.456Z,86.57
2018-01-18T17:25:59.898Z,86.81
2018-01-18T17:28:28.395Z,85.91
2018-01-18T17:30:56.706Z,86.25
2018-01-18T17:33:25.311Z,86.93
2018-01-18T17:35:54.456Z,85.89
2018-01-18T17:38:22.738Z,86.39
2018-01-18T17:40:51.096Z,86.39
2018-01-18T17:43:20.131Z,85.24
2018-01-18T17:45:48.395Z,85.94
2018-01-18T17:48:16.672Z,85.62
2018-01-18T17:50:44.924Z,85.51
2018-01-18T17:53:13.202Z,85.60
2018-01-18T17:55:41.466Z,86.47
2018-01-18T17:58:10.521Z,86.04
2018-01-18T18:00:38.799Z,85.99
2018-01-18T18:03:07.103Z,85.07
2018-01-18T18:05:36.911Z,85.09
2018-01-18T18:08:05.205Z,85.05
2018-01-18T18:10:33.528Z,85.17
2018-01-18T18:13:01.854Z,85.08
2018-01-18T18:15:30.892Z,85.63
2018-01-18T18:17:59.167Z,86.44
2018-01-18T18:20:27.424Z,86.20
2018-01-18T18:22:55.738Z,83.81
2018-01-18T18:25:23.996Z,83.14
2018-01-18T18:27:53.031Z,82.44
2018-01-18T18:30:21.324Z,83.16
2018-01-18T18:32:49.591Z,84.85
2018-01-18T18:35:18.626Z,86.45
2018-01-18T18:37:46.887Z,87.61
2018-01-18T18:40:15.912Z,87.84
2018-01-18T18:42:44.209Z,88.24
2018-01-18T18:45:13.211Z,89.08
2018-01-18T18:47:41.539Z,90.78
2018-01-18T18:50:09.824Z,91.01
2018-01-18T18:52:38.114Z,89.28
2018-01-18T18:55:06.403Z,89.14
2018-01-18T18:57:34.677Z,89.67
2018-01-18T19:00:02.943Z,88.50
2018-01-18T19:02:31.993Z,87.44
2018-01-18T19:05:00.263Z,87.87
2018-01-18T19:07:29.280Z,87.76
2018-01-18T19:09:57.549Z,89.03
2018-01-18T19:12:25.807Z,88.40
2018-01-18T19:14:54.902Z,88.57
2018-01-18T19:17:23.946Z,89.34
2018-01-18T19:19:52.221Z,89.74
2018-01-18T19:22:20.484Z,89.90
2018-01-18T19:24:48.878Z,89.96
2018-01-18T19:27:17.971Z,90.20
2018-01-18T19:29:47.107Z,90.59
2018-01-18T19:32:15.406Z,90.78
2018-01-18T19:34:43.675Z,89.93
2018-01-18T19:37:12.691Z,90.78
2018-01-18T19:39:41.732Z,90.18
2018-01-18T19:42:10.057Z,89.85
2018-01-18T19:44:38.370Z,89.41
2018-01-18T19:47:07.375Z,89.12
2018-01-18T19:49:36.675Z,88.50
2018-01-18T19:52:05.006Z,88.52
2018-01-18T19:54:33.389Z,88.06
2018-01-18T19:57:01.681Z,88.44
2018-01-18T19:59:29.946Z,88.17
2018-01-18T20:01:59.014Z,88.57
2018-01-18T20:04:27.323Z,88.20
2018-01-18T20:06:55.571Z,88.27
2018-01-18T20:09:23.894Z,88.10
2018-01-18T20:11:52.170Z,88.20
2018-01-18T20:14:20.530Z,88.50
2018-01-18T20:16:48.852Z,88.37
2018-01-18T20:19:17.216Z,87.63
2018-01-18T20:21:45.467Z,88.24
2018-01-18T20:24:14.478Z,88.21
2018-01-18T20:26:43.572Z,88.00
2018-01-18T20:29:12.603Z,87.67
2018-01-18T20:31:41.699Z,87.37
2018-01-18T20:34:10.731Z,86.68
2018-01-18T20:36:39.980Z,87.08
2018-01-18T20:39:08.305Z,88.12
2018-01-18T20:41:37.394Z,87.52
2018-01-18T20:44:05.668Z,88.00
2018-01-18T20:46:33.942Z,88.99
2018-01-18T20:49:03.559Z,88.95
2018-01-18T20:51:31.872Z,89.20
2018-01-18T20:54:00.934Z,89.19
2018-01-18T20:56:30.081Z,89.24
2018-01-18T20:58:58.325Z,88.58
2018-01-18T21:01:27.427Z,88.71
2018-01-18T21:03:56.465Z,87.85
2018-01-18T21:06:24.734Z,88.44
2018-01-18T21:08:53.034Z,89.15
2018-01-18T21:11:22.116Z,88.73
2018-01-18T21:13:50.392Z,88.45
2018-01-18T21:16:18.671Z,89.25
2018-01-18T21:18:46.924Z,89.02
2018-01-18T21:21:15.238Z,89.24
2018-01-18T21:23:43.479Z,89.21
2018-01-18T21:26:12.564Z,88.10
2018-01-18T21:28:40.803Z,87.96
2018-01-18T21:31:09.110Z,87.58
2018-01-18T21:33:37.492Z,88.08
2018-01-18T21:36:05.816Z,87.83
2018-01-18T21:38:34.156Z,87.81
2018-01-18T21:41:02.423Z,88.31
2018-01-18T21:43:31.519Z,88.58
2018-01-18T21:46:00.752Z,88.55
2018-01-18T21:48:29.041Z,89.10
2018-01-18T21:50:57.331Z,88.53
2018-01-18T21:53:25.630Z,88.92
2018-01-18T21:55:53.902Z,88.29
2018-01-18T21:58:23.580Z,88.36
2018-01-18T22:00:51.827Z,88.39
2018-01-18T22:03:20.107Z,87.80
2018-01-18T22:05:48.350Z,88.70
2018-01-18T22:08:16.669Z,88.68
2018-01-18T22:10:44.968Z,88.54
2018-01-18T22:13:13.274Z,88.88
2018-01-18T22:15:41.534Z,87.30
2018-01-18T22:18:11.343Z,87.37
2018-01-18T22:20:40.375Z,88.34
2018-01-18T22:23:08.732Z,88.67
2018-01-18T22:25:38.410Z,88.09
2018-01-18T22:28:08.237Z,88.86
2018-01-18T22:30:36.534Z,89.11
2018-01-18T22:33:04.776Z,89.52
2018-01-18T22:35:33.768Z,90.18
2018-01-18T22:38:02.045Z,90.62
2018-01-18T22:40:30.295Z,90.61
2018-01-18T22:42:58.567Z,91.02
2018-01-18T22:45:26.852Z,91.56
2018-01-18T22:47:55.146Z,91.79
2018-01-18T22:50:23.437Z,91.89
2018-01-18T22:52:52.455Z,92.45
2018-01-18T22:55:20.719Z,93.17
2018-01-18T22:57:49.739Z,93.20
2018-01-18T23:00:21.315Z,93.26
2018-01-18T23:02:49.625Z,93.56
2018-01-18T23:05:17.871Z,94.04
2018-01-18T23:07:46.915Z,93.80
2018-01-18T23:10:15.923Z,93.92
2018-01-18T23:12:44.198Z,93.76
2018-01-18T23:15:12.512Z,93.87
2018-01-18T23:17:40.805Z,94.10
2018-01-18T23:20:09.141Z,94.05
2018-01-18T23:22:37.469Z,94.02
2018-01-18T23:25:05.769Z,94.24
2018-01-18T23:27:34.775Z,94.48
2018-01-18T23:30:03.051Z,94.34
2018-01-18T23:32:31.296Z,94.26
2018-01-18T23:35:00.429Z,94.11
2018-01-18T23:37:28.713Z,94.31
2018-01-18T23:39:56.992Z,94.45
2018-01-18T23:42:26.046Z,94.53
2018-01-18T23:44:54.306Z,94.18
2018-01-18T23:47:22.555Z,93.84
2018-01-18T23:49:50.831Z,94.04
2018-01-18T23:52:19.076Z,93.97
2018-01-18T23:54:47.330Z,94.19
2018-01-18T23:57:16.355Z,94.33
2018-01-18T23:59:45.379Z,94.14
